Time;durP1;ratioP1;P1;durP2;ratioP2;P2;SDS_P1;SDS_P2;PMS_P1;PMS_P2;Temp;Humidity;BMP_temperature;BMP_pressure;BME280_temperature;BME280_humidity;BME280_pressure;Samples;Min_cycle;Max_cycle;Signal;HPM_P1;HPM_P2
2022/05/20 00:02:47;;;;;;;2.60;2.40;;;12.10;99.90;12.60;97536.00;;;;5028728;28;20217;-70
2022/05/20 00:05:36;;;;;;;3.53;2.47;;;12.00;99.90;12.60;97533.00;;;;5030638;28;20193;-71
2022/05/20 00:08:25;;;;;;;2.63;2.43;;;11.70;99.90;12.80;97530.00;;;;5031132;28;20197;-70
2022/05/20 00:11:15;;;;;;;4.30;2.63;;;11.80;99.90;12.80;97532.00;;;;5027985;28;20225;-71
2022/05/20 00:14:06;;;;;;;2.87;2.60;;;12.00;99.90;12.80;97533.00;;;;5021487;28;20569;-70
2022/05/20 00:16:54;;;;;;;2.43;2.23;;;11.80;99.90;12.60;97531.00;;;;5029784;28;20236;-70
2022/05/20 00:19:44;;;;;;;2.53;2.33;;;11.80;99.90;13.20;97533.00;;;;5036219;28;20913;-70
2022/05/20 00:22:32;;;;;;;3.07;2.50;;;11.80;99.90;13.20;97526.00;;;;5036021;28;20213;-70
2022/05/20 00:28:32;;;;;;;2.80;2.13;;;11.90;99.90;13.10;97520.00;;;;5029396;28;20194;-71
2022/05/20 00:31:23;;;;;;;4.70;2.30;;;11.80;99.90;13.30;97519.00;;;;5030574;28;20232;-70
2022/05/20 00:34:12;;;;;;;6.73;2.70;;;12.10;99.90;12.80;97523.00;;;;5028975;28;20241;-70
2022/05/20 00:37:01;;;;;;;3.33;2.47;;;12.00;99.90;12.30;97522.00;;;;5034059;28;20609;-70
2022/05/20 00:39:49;;;;;;;5.60;3.40;;;11.60;99.90;12.50;97524.00;;;;5026919;28;20208;-70
2022/05/20 00:42:38;;;;;;;4.90;2.07;;;11.30;99.90;12.90;97526.00;;;;5030444;28;20881;-71
2022/05/20 00:45:29;;;;;;;3.10;2.70;;;11.80;99.90;13.30;97520.00;;;;5033030;28;20276;-70
2022/05/20 00:48:18;;;;;;;5.93;2.63;;;11.80;99.90;13.30;97518.00;;;;5044511;28;20197;-70
2022/05/20 00:51:12;;;;;;;4.10;2.53;;;12.00;99.90;12.90;97516.00;;;;5033070;28;20228;-73
2022/05/20 00:54:09;;;;;;;2.23;2.03;;;11.60;99.90;12.50;97510.00;;;;5032077;28;20296;-71
2022/05/20 00:57:06;;;;;;;6.87;2.77;;;11.80;99.90;13.00;97511.00;;;;5031778;28;20224;-70
2022/05/20 00:59:58;;;;;;;2.70;2.50;;;11.80;99.90;13.30;97519.00;;;;5033079;28;20583;-71
2022/05/20 01:02:52;;;;;;;5.53;2.07;;;11.80;99.90;13.30;97520.00;;;;5029680;28;20213;-70
2022/05/20 01:05:45;;;;;;;3.40;2.63;;;11.90;99.90;13.20;97517.00;;;;5029250;28;20672;-71
2022/05/20 01:08:34;;;;;;;3.30;2.33;;;12.10;99.90;12.60;97504.00;;;;5032502;28;20201;-70
2022/05/20 01:11:23;;;;;;;4.73;2.27;;;11.90;99.90;12.50;97509.00;;;;5033027;28;20225;-71
2022/05/20 01:14:20;;;;;;;2.97;2.40;;;11.70;99.90;12.80;97510.00;;;;5024703;28;20197;-70
2022/05/20 01:17:09;;;;;;;3.10;2.30;;;11.90;99.90;12.90;97501.00;;;;5028226;28;20229;-70
2022/05/20 01:20:00;;;;;;;4.00;2.70;;;11.60;99.90;13.00;97504.00;;;;5036277;28;20202;-70
2022/05/20 01:23:01;;;;;;;5.37;2.33;;;11.90;99.90;12.90;97514.00;;;;5034983;28;20220;-70
2022/05/20 01:25:52;;;;;;;2.67;2.20;;;11.60;99.90;13.20;97504.00;;;;5031477;28;20192;-72
2022/05/20 01:28:41;;;;;;;4.13;2.33;;;11.60;99.90;13.30;97502.00;;;;5031679;28;20208;-69
2022/05/20 01:31:30;;;;;;;2.97;2.43;;;11.80;99.90;13.30;97502.00;;;;5032370;28;20225;-69
2022/05/20 01:34:20;;;;;;;3.27;2.60;;;11.90;99.90;13.20;97493.00;;;;5043967;28;20582;-70
2022/05/20 01:37:09;;;;;;;2.70;2.23;;;11.80;99.90;12.90;97500.00;;;;5027847;28;20228;-69
2022/05/20 01:40:02;;;;;;;3.33;2.60;;;11.70;99.90;12.60;97498.00;;;;5026128;28;20205;-70
2022/05/20 01:42:56;;;;;;;3.47;2.57;;;11.90;99.90;12.50;97496.00;;;;5023575;28;20225;-69
2022/05/20 01:45:54;;;;;;;5.00;2.63;;;11.50;99.90;12.70;97496.00;;;;5029481;28;20198;-69
2022/05/20 01:48:59;;;;;;;3.73;2.83;;;11.60;99.90;12.50;97494.00;;;;5026242;28;20208;-69
2022/05/20 01:51:52;;;;;;;4.93;2.93;;;11.80;99.90;12.90;97501.00;;;;5024296;28;20236;-72
2022/05/20 01:54:58;;;;;;;2.60;2.40;;;11.70;99.90;13.10;97500.00;;;;5028671;28;20212;-69
2022/05/20 01:57:54;;;;;;;3.30;3.00;;;11.60;99.90;13.00;97484.00;;;;5021965;28;20222;-69
2022/05/20 02:00:45;;;;;;;2.90;2.00;;;11.80;99.90;12.90;97496.00;;;;5024879;28;20227;-70
2022/05/20 02:03:42;;;;;;;4.10;3.00;;;11.90;99.90;13.30;97499.00;;;;5035632;28;20201;-70
2022/05/20 02:06:37;;;;;;;2.10;1.90;;;12.10;99.90;12.80;97512.00;;;;5030340;28;20201;-69
2022/05/20 02:09:33;;;;;;;5.80;2.97;;;12.10;99.90;12.50;97495.00;;;;5042194;28;20208;-69
2022/05/20 02:12:26;;;;;;;3.77;2.70;;;11.80;99.90;12.60;97521.00;;;;5034900;28;20224;-69
2022/05/20 02:15:22;;;;;;;4.33;2.90;;;11.70;99.90;12.90;97533.00;;;;5030718;28;20700;-69
2022/05/20 02:18:17;;;;;;;3.50;2.97;;;11.90;99.90;12.40;97528.00;;;;5032816;28;20229;-70
2022/05/20 02:21:11;;;;;;;2.67;2.13;;;11.50;99.90;12.80;97505.00;;;;5031055;28;20236;-69
2022/05/20 02:24:06;;;;;;;2.60;2.40;;;11.70;99.90;13.40;97514.00;;;;5035051;28;20205;-69
2022/05/20 02:27:00;;;;;;;4.10;2.60;;;11.70;99.90;13.50;97515.00;;;;5029247;28;20225;-70
2022/05/20 02:29:54;;;;;;;3.40;2.77;;;11.70;99.90;13.30;97515.00;;;;5031814;28;20219;-69
2022/05/20 02:32:49;;;;;;;2.83;2.43;;;11.90;99.90;12.90;97517.00;;;;5028802;28;20225;-69
2022/05/20 02:35:39;;;;;;;3.83;2.93;;;11.90;99.90;13.30;97511.00;;;;5032055;28;20212;-70
2022/05/20 02:38:28;;;;;;;4.10;2.80;;;12.00;99.90;13.60;97512.00;;;;5023965;28;20700;-70
2022/05/20 02:41:17;;;;;;;6.17;2.77;;;11.90;99.90;13.70;97512.00;;;;5031639;28;20225;-69
2022/05/20 02:44:06;;;;;;;3.17;2.97;;;12.30;99.90;13.50;97513.00;;;;5030471;28;20190;-70
2022/05/20 02:46:55;;;;;;;3.00;2.70;;;12.20;99.90;12.80;97497.00;;;;5039108;28;20215;-69
2022/05/20 02:49:45;;;;;;;2.70;2.47;;;12.30;99.90;12.90;97514.00;;;;5032126;28;20209;-70
2022/05/20 02:52:34;;;;;;;3.40;2.63;;;12.10;99.90;12.90;97502.00;;;;5032218;28;20227;-69
2022/05/20 02:55:23;;;;;;;3.07;2.33;;;12.00;99.90;13.30;97518.00;;;;5031309;28;20205;-69
2022/05/20 03:04:09;;;;;;;2.97;2.70;;;12.00;99.90;13.90;97517.00;;;;5027262;28;20228;-70
2022/05/20 03:04:27;;;;;;;2.73;2.53;;;12.10;99.90;13.90;97521.00;;;;5028562;28;20560;-70
2022/05/20 03:07:17;;;;;;;3.07;2.77;;;12.30;99.90;13.30;97517.00;;;;5030391;28;20206;-70
2022/05/20 03:10:07;;;;;;;3.70;2.37;;;12.40;99.90;13.00;97524.00;;;;5033019;28;20216;-71
2022/05/20 03:13:00;;;;;;;4.73;3.17;;;12.20;99.90;13.30;97520.00;;;;5018929;28;20236;-69
2022/05/20 03:15:48;;;;;;;2.93;2.73;;;12.10;99.90;13.80;97529.00;;;;5031664;28;20201;-70
2022/05/20 03:18:37;;;;;;;2.97;2.53;;;12.20;99.90;14.00;97521.00;;;;5032478;28;20362;-70
2022/05/20 03:21:26;;;;;;;4.37;2.73;;;12.30;99.90;14.10;97533.00;;;;5030340;28;20227;-69
2022/05/20 03:24:16;;;;;;;5.90;2.93;;;12.50;99.90;13.90;97522.00;;;;5032500;28;20208;-69
2022/05/20 03:27:06;;;;;;;5.00;2.67;;;12.60;99.90;13.60;97511.00;;;;5033162;28;20212;-69
2022/05/20 03:29:55;;;;;;;3.27;2.97;;;12.50;99.90;13.30;97518.00;;;;5022387;28;20208;-70
2022/05/20 03:32:44;;;;;;;3.93;3.53;;;12.50;99.90;13.10;97518.00;;;;5026553;28;20625;-69
2022/05/20 03:35:33;;;;;;;3.50;3.20;;;12.50;99.90;13.60;97519.00;;;;5039171;28;20212;-70
2022/05/20 03:38:22;;;;;;;4.17;3.50;;;12.40;99.90;13.80;97512.00;;;;5029194;28;20228;-69
2022/05/20 03:41:13;;;;;;;4.10;2.87;;;12.30;99.90;13.50;97511.00;;;;5017560;28;20224;-69
2022/05/20 03:44:02;;;;;;;6.27;2.67;;;12.20;99.90;13.40;97499.00;;;;5016567;28;20205;-70
2022/05/20 03:46:53;;;;;;;3.10;2.47;;;12.30;99.90;13.30;97493.00;;;;5030597;28;20699;-69
2022/05/20 03:49:43;;;;;;;4.37;2.77;;;12.40;99.90;13.60;97486.00;;;;5027689;28;20197;-70
2022/05/20 03:52:31;;;;;;;3.17;2.93;;;12.30;99.90;13.80;97486.00;;;;5024417;28;20224;-70
2022/05/20 03:55:21;;;;;;;3.37;2.73;;;12.50;99.90;12.80;97481.00;;;;5035117;28;20217;-69
2022/05/20 03:58:11;;;;;;;3.03;2.70;;;12.20;99.90;12.70;97482.00;;;;5042381;28;20209;-70
2022/05/20 04:04:06;;;;;;;4.13;2.97;;;12.20;99.90;13.40;97495.00;;;;5031835;28;20197;-70
2022/05/20 04:06:55;;;;;;;3.20;2.80;;;12.30;99.90;13.70;97490.00;;;;5031550;28;20209;-69
2022/05/20 04:09:45;;;;;;;3.97;2.40;;;12.30;99.90;14.10;97486.00;;;;5030131;28;20198;-70
2022/05/20 04:12:36;;;;;;;4.63;2.93;;;12.40;99.90;14.00;97495.00;;;;5034298;28;20217;-71
2022/05/20 04:15:26;;;;;;;2.60;2.40;;;12.70;99.90;13.90;97489.00;;;;5030873;28;20202;-70
2022/05/20 04:18:15;;;;;;;4.50;3.33;;;12.60;99.90;13.90;97491.00;;;;5028430;28;20217;-70
2022/05/20 04:21:04;;;;;;;7.13;2.70;;;12.10;99.90;14.00;97493.00;;;;5029167;28;20230;-71
2022/05/20 04:23:53;;;;;;;3.87;2.70;;;12.90;99.90;14.60;97493.00;;;;5038778;28;20220;-69
2022/05/20 04:26:42;;;;;;;4.37;2.63;;;13.00;99.90;14.80;97497.00;;;;5032590;28;20197;-69
2022/05/20 04:29:30;;;;;;;4.23;3.83;;;13.00;99.90;14.70;97490.00;;;;5017925;28;20210;-70
2022/05/20 04:32:21;;;;;;;3.13;2.93;;;13.20;99.90;15.00;97478.00;;;;5025016;28;20223;-70
2022/05/20 04:35:10;;;;;;;4.40;3.43;;;13.10;99.90;14.80;97495.00;;;;5012914;28;20210;-71
2022/05/20 04:37:59;;;;;;;3.80;2.80;;;13.40;99.90;14.00;97484.00;;;;5016740;28;20222;-69
2022/05/20 04:46:56;;;;;;;3.40;2.73;;;13.20;99.90;14.90;97494.00;;;;5033619;28;20565;-69
2022/05/20 04:47:07;;;;;;;6.40;4.03;;;13.80;99.90;15.10;97496.00;;;;5033657;28;20205;-70
2022/05/20 04:49:57;;;;;;;5.30;3.80;;;14.10;99.90;15.10;97484.00;;;;5031892;28;20205;-70
2022/05/20 04:52:46;;;;;;;3.47;3.17;;;13.90;99.90;15.00;97485.00;;;;5035999;28;20231;-69
2022/05/20 04:55:34;;;;;;;6.77;3.40;;;13.80;99.90;14.60;97487.00;;;;5027857;28;20968;-71
2022/05/20 04:58:23;;;;;;;4.40;3.53;;;13.80;99.90;15.00;97490.00;;;;5030218;28;20247;-70
2022/05/20 05:01:12;;;;;;;4.70;3.67;;;13.80;99.90;15.30;97495.00;;;;5024698;28;20293;-69
2022/05/20 05:04:02;;;;;;;3.60;3.30;;;13.70;99.90;14.90;97490.00;;;;5029301;28;20688;-70
2022/05/20 05:06:52;;;;;;;5.77;3.47;;;13.90;99.90;15.00;97490.00;;;;5028693;28;20653;-69
2022/05/20 05:09:42;;;;;;;7.30;3.53;;;14.10;99.90;15.70;97483.00;;;;5023759;28;20197;-69
2022/05/20 05:12:32;;;;;;;4.93;3.40;;;14.00;99.90;16.50;97493.00;;;;5030326;28;20221;-69
2022/05/20 05:15:21;;;;;;;12.00;3.53;;;14.50;99.90;16.30;97498.00;;;;5029300;28;20220;-70
2022/05/20 05:18:12;;;;;;;4.13;3.57;;;14.70;99.90;16.50;97493.00;;;;5029479;28;20296;-70
2022/05/20 05:21:01;;;;;;;5.43;3.20;;;14.80;99.90;16.80;97493.00;;;;5027629;28;20231;-70
2022/05/20 05:23:51;;;;;;;5.23;4.03;;;14.90;99.90;17.00;97483.00;;;;5021477;28;20295;-72
2022/05/20 05:26:42;;;;;;;4.30;3.50;;;15.50;99.90;16.50;97490.00;;;;5040382;28;20676;-71
2022/05/20 05:29:31;;;;;;;5.07;3.50;;;15.30;99.90;16.70;97509.00;;;;5028866;28;20209;-70
2022/05/20 05:32:20;;;;;;;7.67;4.00;;;15.30;99.90;16.70;97502.00;;;;5026785;28;20225;-69
2022/05/20 05:35:13;;;;;;;5.17;4.67;;;15.50;99.90;17.10;97511.00;;;;5028343;28;20196;-70
2022/05/20 05:38:03;;;;;;;3.97;3.27;;;15.40;99.90;17.00;97514.00;;;;4996755;28;20256;-70
2022/05/20 05:40:54;;;;;;;3.67;3.37;;;15.60;99.90;16.60;97521.00;;;;5014757;28;20727;-70
2022/05/20 05:43:43;;;;;;;5.70;3.63;;;15.80;99.90;16.70;97528.00;;;;5029751;28;20544;-69
2022/05/20 05:46:32;;;;;;;4.73;3.00;;;15.60;99.90;16.90;97531.00;;;;5025327;28;21549;-70
2022/05/20 05:49:21;;;;;;;5.17;3.07;;;15.80;99.90;17.40;97526.00;;;;5028467;28;20205;-70
2022/05/20 05:52:10;;;;;;;3.30;3.10;;;15.80;99.90;17.30;97521.00;;;;5024719;28;20254;-69
2022/05/20 05:54:58;;;;;;;4.03;3.63;;;15.70;99.90;17.00;97524.00;;;;5026328;28;20201;-72
2022/05/20 05:57:49;;;;;;;5.93;3.60;;;15.70;99.90;17.50;97529.00;;;;5027443;28;20752;-70
2022/05/20 06:00:38;;;;;;;5.37;4.03;;;15.70;99.90;17.60;97530.00;;;;5018586;28;20464;-70
2022/05/20 06:03:27;;;;;;;4.73;4.10;;;16.10;99.90;17.80;97526.00;;;;5023939;28;20607;-71
2022/05/20 06:06:16;;;;;;;6.03;4.37;;;16.10;99.90;18.20;97533.00;;;;5029112;28;20208;-71
2022/05/20 06:09:04;;;;;;;6.83;4.03;;;16.10;99.90;17.80;97531.00;;;;5038784;28;20212;-70
2022/05/20 06:11:53;;;;;;;5.90;3.73;;;16.20;99.90;17.80;97529.00;;;;5029719;28;20252;-71
2022/05/20 06:14:43;;;;;;;3.87;3.30;;;16.40;99.90;17.80;97544.00;;;;5039037;28;20684;-71
2022/05/20 06:17:33;;;;;;;5.03;3.50;;;16.20;99.90;18.00;97547.00;;;;5038964;28;20688;-70
2022/05/20 06:20:24;;;;;;;4.30;3.33;;;16.40;99.90;17.90;97543.00;;;;5028817;28;20233;-70
2022/05/20 06:23:13;;;;;;;4.57;3.33;;;16.40;99.90;17.70;97540.00;;;;5021267;28;20209;-69
2022/05/20 06:26:01;;;;;;;3.97;3.20;;;16.50;99.90;18.30;97539.00;;;;5022854;28;20197;-71
2022/05/20 06:29:06;;;;;;;4.53;3.80;;;16.60;99.90;17.80;97543.00;;;;5027225;28;20252;-70
2022/05/20 06:31:57;;;;;;;5.07;4.23;;;16.70;99.90;18.20;97544.00;;;;5028423;28;20723;-71
2022/05/20 06:40:59;;;;;;;5.77;3.37;;;16.90;99.90;18.30;97544.00;;;;5029637;28;20248;-70
2022/05/20 06:43:48;;;;;;;3.90;3.47;;;17.00;99.90;18.60;97545.00;;;;5030083;28;20697;-69
2022/05/20 06:46:37;;;;;;;4.53;4.03;;;17.10;99.90;18.90;97549.00;;;;5015793;28;20201;-70
2022/05/20 06:49:27;;;;;;;4.30;3.83;;;17.30;99.90;18.70;97546.00;;;;5027678;28;20219;-70
2022/05/20 06:52:16;;;;;;;4.13;3.73;;;17.40;99.90;18.80;97540.00;;;;5028623;28;20232;-70
2022/05/20 06:55:24;;;;;;;3.80;3.47;;;17.20;99.90;19.30;97550.00;;;;5019997;28;20206;-70
2022/05/20 06:58:13;;;;;;;4.83;4.10;;;17.40;99.90;19.30;97552.00;;;;5029836;28;20209;-69
2022/05/20 07:01:03;;;;;;;5.30;4.30;;;17.60;99.90;19.20;97555.00;;;;5028674;28;20221;-71
2022/05/20 07:03:52;;;;;;;8.33;4.07;;;17.60;99.90;19.20;97550.00;;;;5021872;28;20213;-69
2022/05/20 07:06:42;;;;;;;6.23;4.13;;;17.60;99.90;19.50;97558.00;;;;5037926;28;20205;-69
2022/05/20 07:09:32;;;;;;;7.43;4.27;;;17.80;99.90;19.40;97545.00;;;;5025450;28;20224;-69
2022/05/20 07:12:20;;;;;;;7.33;5.20;;;17.80;99.90;20.10;97545.00;;;;5033135;28;20229;-69
2022/05/20 07:15:11;;;;;;;5.37;4.57;;;18.20;99.90;20.30;97542.00;;;;5017309;28;20209;-70
2022/05/20 07:18:00;;;;;;;5.90;4.37;;;18.40;99.90;20.80;97533.00;;;;5022957;28;20229;-69
2022/05/20 07:20:49;;;;;;;9.73;5.50;;;18.90;99.90;21.10;97558.00;;;;5024558;28;20251;-70
2022/05/20 07:23:41;;;;;;;5.23;4.63;;;19.00;99.90;21.40;97552.00;;;;5024083;28;20212;-69
2022/05/20 07:26:30;;;;;;;7.57;4.67;;;19.30;99.90;21.40;97548.00;;;;5025817;28;20704;-68
2022/05/20 07:29:19;;;;;;;4.93;4.43;;;19.40;99.90;21.10;97553.00;;;;5025884;28;20200;-69
2022/05/20 07:32:09;;;;;;;7.63;4.33;;;19.70;99.90;21.10;97557.00;;;;5027861;28;20225;-69
2022/05/20 07:34:57;;;;;;;11.23;5.43;;;19.60;99.90;21.20;97555.00;;;;5036361;28;20678;-69
2022/05/20 07:37:46;;;;;;;4.77;4.30;;;19.60;99.90;21.50;97550.00;;;;5022062;28;20202;-69
2022/05/20 07:40:37;;;;;;;6.07;4.60;;;19.70;99.90;21.90;97533.00;;;;5023229;28;20297;-70
2022/05/20 07:43:28;;;;;;;6.07;4.27;;;19.90;99.90;22.50;97533.00;;;;5032068;28;20303;-69
2022/05/20 07:46:17;;;;;;;4.53;3.83;;;20.10;99.90;22.60;97526.00;;;;5032827;28;20209;-69
2022/05/20 07:49:07;;;;;;;9.07;4.90;;;20.40;99.90;23.40;97532.00;;;;5033109;28;20201;-70
2022/05/20 07:51:57;;;;;;;4.40;3.77;;;20.80;99.90;23.70;97531.00;;;;5027852;28;20228;-69
2022/05/20 07:54:46;;;;;;;8.43;4.37;;;21.10;99.90;24.30;97530.00;;;;5027324;28;20204;-69
2022/05/20 07:57:39;;;;;;;6.30;4.10;;;21.70;99.90;25.00;97524.00;;;;5035448;28;20201;-69
2022/05/20 08:00:28;;;;;;;5.13;3.80;;;22.40;99.90;25.30;97529.00;;;;5015384;28;20221;-70
2022/05/20 08:04:53;;;;;;;8.13;4.13;;;22.50;99.90;25.80;97524.00;;;;5029268;28;20212;-70
2022/05/20 08:06:28;;;;;;;4.57;3.50;;;22.90;99.90;26.10;97520.00;;;;5032278;28;20197;-69
2022/05/20 08:09:17;;;;;;;5.17;3.73;;;23.40;99.90;26.40;97522.00;;;;5033070;28;20208;-69
2022/05/20 08:12:07;;;;;;;5.93;4.00;;;23.70;99.90;26.90;97511.00;;;;5032393;28;20243;-68
2022/05/20 08:15:02;;;;;;;6.33;3.93;;;24.00;99.90;27.10;97511.00;;;;5030366;28;20669;-69
2022/05/20 08:17:51;;;;;;;4.27;3.50;;;24.40;99.90;27.20;97521.00;;;;5033727;28;20273;-68
2022/05/20 08:20:42;;;;;;;8.20;5.10;;;24.60;99.90;26.80;97522.00;;;;5025861;28;20229;-68
2022/05/20 08:23:31;;;;;;;5.03;3.77;;;24.80;99.90;26.40;97505.00;;;;5018807;28;20700;-68
2022/05/20 08:26:20;;;;;;;5.60;3.73;;;24.70;99.90;27.20;97498.00;;;;5036426;28;20228;-68
2022/05/20 08:29:11;;;;;;;5.40;3.53;;;24.80;99.90;27.40;97504.00;;;;5041909;28;20212;-68
2022/05/20 08:32:01;;;;;;;6.00;3.70;;;24.90;99.90;27.60;97513.00;;;;5033214;28;20233;-68
2022/05/20 08:34:50;;;;;;;4.17;3.77;;;25.10;99.90;27.80;97496.00;;;;5039575;28;20207;-68
2022/05/20 08:37:41;;;;;;;4.47;3.40;;;25.30;99.90;28.10;97497.00;;;;5028794;28;20682;-69
2022/05/20 08:40:37;;;;;;;3.50;3.20;;;25.50;99.90;28.20;97495.00;;;;5039326;28;20227;-68
2022/05/20 08:43:29;;;;;;;5.70;2.50;;;25.70;99.90;28.60;97492.00;;;;5020686;28;20223;-68
2022/05/20 08:46:21;;;;;;;6.50;3.37;;;25.90;99.90;28.60;97495.00;;;;5015983;28;20195;-68
2022/05/20 08:49:16;;;;;;;3.77;3.10;;;26.10;99.90;29.00;97488.00;;;;5029125;28;20201;-69
2022/05/20 08:52:06;;;;;;;2.93;2.63;;;26.40;99.80;29.30;97489.00;;;;5029821;28;20226;-68
2022/05/20 08:54:55;;;;;;;5.37;3.43;;;26.60;99.60;29.30;97494.00;;;;5019712;28;20201;-68
2022/05/20 08:58:02;;;;;;;4.13;3.37;;;26.70;98.70;29.50;97493.00;;;;5029392;28;20202;-68
2022/05/20 09:00:51;;;;;;;4.13;2.90;;;26.90;98.70;29.70;97486.00;;;;5019913;28;20234;-68
2022/05/20 09:03:42;;;;;;;3.13;2.57;;;27.10;98.60;29.80;97484.00;;;;5030999;28;20211;-68
2022/05/20 09:06:33;;;;;;;11.93;4.70;;;27.30;98.50;29.90;97489.00;;;;5031964;28;20210;-68
2022/05/20 09:09:22;;;;;;;9.53;4.17;;;27.50;99.30;29.90;97490.00;;;;5019377;28;20219;-68
2022/05/20 09:12:25;;;;;;;11.90;4.13;;;27.60;98.20;30.00;97495.00;;;;5024682;28;20233;-68
2022/05/20 09:18:37;;;;;;;14.53;4.77;;;27.70;91.10;30.40;97477.00;;;;5032545;28;20700;-69
2022/05/20 09:21:32;;;;;;;9.43;4.50;;;27.90;93.20;30.60;97477.00;;;;5025492;28;20274;-68
2022/05/20 09:24:24;;;;;;;8.33;4.10;;;28.10;89.40;30.80;97478.00;;;;5032202;28;20208;-69
2022/05/20 09:27:19;;;;;;;7.07;3.10;;;28.20;87.20;30.90;97471.00;;;;5027914;28;20215;-68
2022/05/20 09:30:13;;;;;;;8.23;3.70;;;28.40;85.40;31.10;97471.00;;;;5042497;28;20207;-68
2022/05/20 09:33:12;;;;;;;6.20;3.60;;;28.50;81.60;31.30;97473.00;;;;5030638;28;20672;-68
2022/05/20 09:36:03;;;;;;;8.27;3.33;;;28.60;82.40;31.20;97466.00;;;;5030844;28;20587;-68
2022/05/20 09:38:52;;;;;;;7.97;3.13;;;28.80;81.20;31.40;97465.00;;;;5028328;28;20213;-68
2022/05/20 09:41:53;;;;;;;5.80;3.30;;;28.80;79.90;31.50;97464.00;;;;5038446;28;20232;-68
2022/05/20 09:44:44;;;;;;;11.93;4.13;;;29.00;78.90;31.80;97458.00;;;;5034179;28;20217;-68
2022/05/20 09:47:40;;;;;;;6.27;3.63;;;29.30;78.70;32.10;97457.00;;;;5033961;28;20226;-69
2022/05/20 09:50:31;;;;;;;8.53;3.53;;;29.40;78.60;32.10;97455.00;;;;5026873;28;20215;-69
2022/05/20 09:53:33;;;;;;;10.30;3.63;;;29.50;77.20;32.20;97449.00;;;;5030407;28;20221;-69
2022/05/20 09:56:28;;;;;;;7.90;3.67;;;29.70;76.80;32.30;97449.00;;;;5021733;28;20214;-69
2022/05/20 09:59:31;;;;;;;10.23;2.83;;;29.70;75.30;32.00;97447.00;;;;5014988;28;20208;-69
2022/05/20 10:02:27;;;;;;;8.52;3.55;;;30.00;74.10;31.70;97447.00;;;;5026273;28;20226;-69
2022/05/20 10:05:24;;;;;;;7.93;3.50;;;30.00;71.40;31.40;97449.00;;;;5028905;28;20204;-69
2022/05/20 10:08:22;;;;;;;10.73;3.97;;;30.00;71.10;32.00;97442.00;;;;5020938;28;20204;-69
2022/05/20 10:11:17;;;;;;;5.20;3.03;;;30.00;71.20;32.50;97439.00;;;;5023269;28;20231;-69
2022/05/20 10:14:15;;;;;;;9.53;3.23;;;30.10;70.50;33.10;97442.00;;;;5029850;28;20204;-69
2022/05/20 10:17:16;;;;;;;6.18;4.15;;;30.30;70.50;33.40;97433.00;;;;5040888;28;20233;-67
2022/05/20 10:20:12;;;;;;;6.30;3.47;;;30.60;70.40;33.00;97429.00;;;;5028081;28;20203;-69
2022/05/20 10:23:12;;;;;;;8.75;3.20;;;30.70;68.70;33.00;97422.00;;;;5026692;28;20225;-69
2022/05/20 10:26:11;;;;;;;6.37;3.73;;;30.60;65.80;33.60;97413.00;;;;5028782;28;20211;-68
2022/05/20 10:32:36;;;;;;;9.55;3.50;;;31.00;67.50;33.80;97414.00;;;;5020107;28;20218;-68
2022/05/20 10:35:36;;;;;;;5.00;3.38;;;31.20;67.20;33.90;97407.00;;;;5021228;28;20198;-68
2022/05/20 10:39:00;;;;;;;4.03;3.30;;;31.40;65.10;33.70;97403.00;;;;5026997;28;20206;-68
2022/05/20 10:42:21;;;;;;;6.40;3.28;;;31.50;63.60;33.60;97393.00;;;;5017202;28;20231;-68
2022/05/20 10:48:58;;;;;;;4.28;2.92;;;31.00;62.40;32.70;97396.00;;;;5026157;28;20839;-67
2022/05/20 10:52:21;;;;;;;7.35;3.97;;;30.90;64.20;32.80;97400.00;;;;5031858;28;20219;-67
2022/05/20 10:55:22;;;;;;;6.85;2.92;;;31.30;62.10;33.90;97400.00;;;;5021167;28;20222;-68
2022/05/20 10:58:44;;;;;;;6.03;3.10;;;31.20;64.10;34.20;97397.00;;;;5014506;28;20203;-67
2022/05/20 11:01:50;;;;;;;5.70;3.38;;;31.40;61.70;32.90;97382.00;;;;5020923;28;20247;-68
2022/05/20 11:05:05;;;;;;;6.72;2.78;;;31.60;60.90;33.10;97393.00;;;;5028967;28;20196;-67
2022/05/20 11:08:07;;;;;;;7.07;4.32;;;31.50;61.50;33.20;97397.00;;;;5038791;28;20202;-67
2022/05/20 11:11:23;;;;;;;8.75;2.85;;;31.40;60.40;32.90;97387.00;;;;5012624;28;20749;-68
2022/05/20 11:14:35;;;;;;;2.90;2.60;;;31.40;59.30;34.00;97386.00;;;;5030423;28;20250;-68
2022/05/20 11:18:06;;;;;;;4.53;2.85;;;31.40;60.60;34.60;97383.00;;;;5023120;28;20207;-68
2022/05/20 11:21:21;;;;;;;6.65;3.30;;;31.70;58.40;34.60;97391.00;;;;5021289;28;20223;-68
2022/05/20 11:24:55;;;;;;;3.10;2.80;;;32.00;81.90;34.90;97370.00;;;;5038490;28;20204;-68
2022/05/20 11:28:20;;;;;;;8.43;3.10;;;32.20;55.80;35.60;97371.00;;;;5035259;28;20220;-68
2022/05/20 11:31:28;;;;;;;4.60;2.97;;;32.50;55.20;35.10;97365.00;;;;5039528;28;20222;-68
2022/05/20 11:35:11;;;;;;;7.40;2.72;;;32.70;54.90;34.40;97368.00;;;;5031021;28;20213;-68
2022/05/20 11:38:20;;;;;;;3.50;3.13;;;32.80;54.10;33.80;97358.00;;;;4966484;28;20932;-68
2022/05/20 11:41:25;;;;;;;7.63;3.17;;;32.70;54.30;34.00;97366.00;;;;5034809;28;20721;-69
2022/05/20 11:44:42;;;;;;;5.15;3.20;;;32.40;54.00;33.60;97352.00;;;;5018478;28;20209;-67
2022/05/20 11:48:11;;;;;;;6.50;3.00;;;32.40;54.10;34.60;97358.00;;;;5027025;28;20706;-68
2022/05/20 11:51:17;;;;;;;4.93;2.42;;;32.40;54.70;35.50;97350.00;;;;5027702;28;20599;-68
2022/05/20 11:54:14;;;;;;;6.13;2.55;;;32.60;55.30;35.80;97355.00;;;;5017416;28;20690;-68
2022/05/20 11:57:08;;;;;;;4.90;2.80;;;32.90;55.00;36.00;97352.00;;;;5024596;28;20223;-68
2022/05/20 12:00:04;;;;;;;3.88;2.90;;;33.20;54.50;36.00;97343.00;;;;5026810;28;20204;-68
2022/05/20 12:02:58;;;;;;;5.72;2.72;;;33.50;53.90;36.70;97331.00;;;;5018354;28;20735;-68
2022/05/20 12:05:51;;;;;;;4.55;2.80;;;33.70;54.10;35.30;97342.00;;;;5025702;28;20212;-69
2022/05/20 12:08:55;;;;;;;3.30;2.88;;;33.70;54.00;34.30;97342.00;;;;5026202;28;20209;-68
2022/05/20 12:12:27;;;;;;;3.22;2.53;;;33.60;51.70;36.80;97331.00;;;;5027803;28;20231;-66
2022/05/20 12:15:46;;;;;;;4.05;2.90;;;33.70;52.70;37.90;97319.00;;;;5024968;28;20207;-68
2022/05/20 12:24:54;;;;;;;2.65;2.45;;;35.30;55.50;39.20;97316.00;;;;5029925;28;20204;-69
2022/05/20 12:27:45;;;;;;;3.28;2.65;;;35.70;52.40;39.30;97313.00;;;;5032776;28;20661;-68
2022/05/20 12:30:43;;;;;;;5.75;2.72;;;36.10;51.20;39.40;97304.00;;;;5037990;28;20675;-68
2022/05/20 12:33:52;;;;;;;3.55;2.88;;;36.30;50.20;39.20;97370.00;;;;5030958;28;20197;-68
2022/05/20 12:36:43;;;;;;;2.53;2.33;;;36.30;49.70;37.50;97361.00;;;;5028611;28;20207;-68
2022/05/20 12:39:51;;;;;;;4.10;2.50;;;35.90;51.20;36.10;97310.00;;;;5026114;28;20889;-68
2022/05/20 12:42:49;;;;;;;3.50;2.03;;;35.20;48.80;34.40;97315.00;;;;5030647;28;20229;-69
2022/05/20 12:45:49;;;;;;;2.75;2.55;;;34.40;48.40;34.30;97348.00;;;;5031170;28;20209;-68
2022/05/20 12:48:38;;;;;;;2.67;2.30;;;33.70;50.10;33.80;97290.00;;;;5034544;28;20790;-67
2022/05/20 12:51:40;;;;;;;4.25;2.85;;;33.10;50.00;32.00;97332.00;;;;5038577;28;20239;-67
2022/05/20 12:54:29;;;;;;;2.92;2.72;;;32.40;50.20;32.70;97287.00;;;;5023969;28;20205;-69
2022/05/20 12:57:21;;;;;;;2.47;2.17;;;31.90;50.80;34.00;97305.00;;;;5027113;28;20661;-68
2022/05/20 13:00:14;;;;;;;2.92;2.63;;;31.90;52.40;34.70;97335.00;;;;5022962;28;20209;-68
2022/05/20 13:03:08;;;;;;;3.08;2.42;;;32.00;52.20;34.90;97347.00;;;;5026015;28;20228;-68
2022/05/20 13:06:00;;;;;;;5.43;2.78;;;32.20;52.80;34.30;97271.00;;;;5018739;28;20201;-69
2022/05/20 13:08:54;;;;;;;4.18;2.65;;;32.20;50.60;35.30;97263.00;;;;5025062;28;20201;-69
2022/05/20 13:11:45;;;;;;;4.70;2.28;;;32.60;50.80;36.40;97263.00;;;;5029409;28;20235;-69
2022/05/20 13:14:37;;;;;;;4.15;2.78;;;33.00;51.20;35.60;97267.00;;;;5025758;28;20216;-68
2022/05/20 13:17:30;;;;;;;3.08;2.78;;;33.40;49.70;35.80;97338.00;;;;5020100;28;20205;-67
2022/05/20 13:20:19;;;;;;;4.18;2.97;;;33.50;50.60;35.90;97269.00;;;;5025720;28;20197;-68
2022/05/20 13:23:09;;;;;;;3.75;2.55;;;33.30;50.20;37.00;97267.00;;;;5029360;28;20229;-67
2022/05/20 13:25:58;;;;;;;3.95;2.88;;;33.70;50.90;37.40;97289.00;;;;5032014;28;20677;-69
2022/05/20 13:28:47;;;;;;;5.50;3.00;;;34.10;51.20;34.70;97328.00;;;;5024327;28;20578;-66
2022/05/20 13:31:36;;;;;;;2.67;2.47;;;33.80;49.70;33.70;97324.00;;;;5022309;28;20224;-69